Time;durP1;ratioP1;P1;durP2;ratioP2;P2;SDS_P1;SDS_P2;PMS_P1;PMS_P2;Temp;Humidity;BMP_temperature;BMP_pressure;BME280_temperature;BME280_humidity;BME280_pressure;Samples;Min_cycle;Max_cycle;Signal;HPM_P1;HPM_P2
2021/05/13 00:00:36;;;;;;;10.07;8.53;;;;;;;12.33;75.91;98273.25;5082737;28;42768;-77
2021/05/13 00:03:04;;;;;;;8.80;7.30;;;;;;;12.37;76.18;98278.19;5090285;28;41340;-77
2021/05/13 00:05:31;;;;;;;8.80;7.67;;;;;;;12.31;76.24;98262.75;5104599;27;41200;-78
2021/05/13 00:07:59;;;;;;;9.90;7.83;;;;;;;12.39;76.25;98275.41;5090965;28;41966;-77
2021/05/13 00:10:28;;;;;;;8.33;7.17;;;;;;;12.39;76.36;98275.41;5105949;27;42099;-77
2021/05/13 00:12:58;;;;;;;9.83;8.20;;;;;;;12.40;76.67;98269.97;5107395;28;40716;-78
2021/05/13 00:15:27;;;;;;;9.63;7.17;;;;;;;12.24;76.71;98238.47;5108277;27;41393;-77
2021/05/13 00:17:56;;;;;;;10.87;9.07;;;;;;;12.42;76.83;98264.53;5106246;28;41409;-77
2021/05/13 00:20:26;;;;;;;8.57;7.67;;;;;;;12.43;76.54;98261.78;5106704;28;43688;-76
2021/05/13 00:22:53;;;;;;;11.03;8.77;;;;;;;12.42;76.80;98270.69;5107787;28;40074;-77
2021/05/13 00:25:21;;;;;;;9.00;8.00;;;;;;;12.42;76.79;98265.38;5106411;27;41764;-78
2021/05/13 00:27:49;;;;;;;9.63;7.97;;;;;;;12.40;76.93;98264.66;5107999;27;43197;-76
2021/05/13 00:30:17;;;;;;;8.33;7.27;;;;;;;12.44;76.87;98266.13;5141283;27;42295;-77
2021/05/13 00:32:45;;;;;;;7.80;7.00;;;;;;;12.40;76.84;98251.38;5107190;28;40823;-78
2021/05/13 00:35:15;;;;;;;11.13;9.17;;;;;;;12.44;76.86;98262.63;5106700;27;41632;-77
2021/05/13 00:37:44;;;;;;;10.63;8.63;;;;;;;12.42;76.94;98267.19;5107382;28;42182;-79
2021/05/13 00:40:14;;;;;;;8.67;7.77;;;;;;;12.39;77.01;98265.63;5087758;28;42694;-77
2021/05/13 00:42:43;;;;;;;9.30;8.17;;;;;;;12.40;77.26;98262.00;5089653;28;39089;-78
2021/05/13 00:45:12;;;;;;;8.63;7.70;;;;;;;12.39;76.89;98259.47;5107110;28;41527;-78
2021/05/13 00:47:46;;;;;;;8.97;8.07;;;;;;;12.37;76.99;98254.28;5107072;27;42430;-76
2021/05/13 00:50:15;;;;;;;8.80;7.40;;;;;;;12.41;77.25;98258.38;5088320;28;41344;-78
2021/05/13 00:52:43;;;;;;;8.83;7.97;;;;;;;12.43;77.15;98261.78;5084550;28;40291;-77
2021/05/13 00:55:11;;;;;;;9.63;8.10;;;;;;;12.28;76.93;98236.44;5105544;28;42371;-78
2021/05/13 00:57:43;;;;;;;9.30;8.40;;;;;;;12.35;77.07;98248.28;5105740;28;42506;-77
2021/05/13 01:02:55;;;;;;;13.27;9.37;;;;;;;12.44;76.85;98270.59;5105617;28;39645;-79
2021/05/13 01:05:23;;;;;;;33.43;12.13;;;;;;;12.40;77.00;98259.34;5088295;28;40922;-77
2021/05/13 01:07:50;;;;;;;19.60;11.03;;;;;;;12.47;77.36;98267.69;5107107;27;42503;-78
2021/05/13 01:10:18;;;;;;;43.47;12.53;;;;;;;12.46;77.48;98266.00;5106019;27;41817;-78
2021/05/13 01:12:47;;;;;;;11.40;10.30;;;;;;;12.45;77.31;98262.50;5106916;27;40708;-78
2021/05/13 01:15:22;;;;;;;12.47;10.00;;;;;;;12.42;77.26;98251.28;5107581;27;42294;-77
2021/05/13 01:17:58;;;;;;;11.07;8.50;;;;;;;12.50;77.06;98262.97;5106212;27;41470;-77
2021/05/13 01:20:27;;;;;;;27.67;10.93;;;;;;;12.51;76.96;98256.69;5106708;27;42361;-78
2021/05/13 01:22:55;;;;;;;10.93;9.93;;;;;;;12.43;77.29;98239.69;5106475;28;39251;-76
2021/05/13 01:25:22;;;;;;;10.30;9.30;;;;;;;12.51;77.09;98256.69;5087199;28;41455;-78
2021/05/13 01:27:55;;;;;;;8.60;7.80;;;;;;;12.52;77.17;98255.72;5105447;28;43519;-76
2021/05/13 01:30:22;;;;;;;8.97;8.07;;;;;;;12.53;77.41;98254.75;5103419;28;42999;-77
2021/05/13 01:32:50;;;;;;;28.60;10.77;;;;;;;12.52;77.45;98252.22;5107278;27;39807;-79
2021/05/13 01:35:17;;;;;;;8.63;7.77;;;;;;;12.51;77.21;98240.75;5099605;28;41232;-78
2021/05/13 01:37:44;;;;;;;8.63;7.90;;;;;;;12.50;77.76;98235.56;5105188;28;43775;-78
2021/05/13 01:40:14;;;;;;;9.77;8.77;;;;;;;12.45;77.71;98227.97;5104405;28;41890;-77
2021/05/13 01:42:41;;;;;;;7.50;6.87;;;;;;;12.46;77.46;98229.66;5088050;28;39861;-77
2021/05/13 01:45:10;;;;;;;8.67;7.93;;;;;;;12.44;77.61;98225.44;5087815;28;40917;-77
2021/05/13 01:47:37;;;;;;;14.67;9.53;;;;;;;12.42;77.33;98227.38;5105882;28;42992;-77
2021/05/13 01:50:05;;;;;;;7.63;6.93;;;;;;;12.41;77.48;98225.69;5107186;27;43231;-77
2021/05/13 01:52:32;;;;;;;10.47;7.50;;;;;;;12.44;77.83;98230.75;5103586;28;38830;-78
2021/05/13 01:54:59;;;;;;;11.90;6.80;;;;;;;12.29;77.51;98200.97;5106137;27;42508;-77
2021/05/13 01:57:27;;;;;;;25.93;9.53;;;;;;;12.40;77.59;98214.22;5102846;28;42752;-76
2021/05/13 01:59:57;;;;;;;10.70;7.57;;;;;;;12.46;77.45;98224.34;5087410;28;42713;-77
2021/05/13 02:02:24;;;;;;;8.50;7.70;;;;;;;12.47;77.57;98215.44;5088949;28;39821;-77
2021/05/13 02:05:04;;;;;;;7.13;6.43;;;;;;;12.50;77.35;98220.47;5104782;28;40889;-76
2021/05/13 02:07:32;;;;;;;18.60;9.33;;;;;;;12.49;77.58;98217.94;5103980;28;43193;-77
2021/05/13 02:09:59;;;;;;;8.20;7.40;;;;;;;12.52;77.64;98218.53;5086427;28;41357;-77
2021/05/13 02:12:27;;;;;;;11.00;7.93;;;;;;;12.52;77.88;98213.22;5104797;28;39719;-77
2021/05/13 02:14:54;;;;;;;8.93;8.07;;;;;;;12.50;77.53;98209.00;5106158;27;42227;-78
2021/05/13 02:17:21;;;;;;;13.60;8.33;;;;;;;12.39;77.72;98196.59;5105349;27;43455;-78
2021/05/13 02:19:49;;;;;;;8.50;7.70;;;;;;;12.48;77.71;98211.81;5087898;28;41064;-78
2021/05/13 02:22:16;;;;;;;9.23;8.33;;;;;;;12.42;77.91;98206.97;5104552;28;39068;-78
2021/05/13 02:24:43;;;;;;;8.93;7.93;;;;;;;12.15;77.59;98166.69;5104475;28;44008;-77
2021/05/13 02:27:10;;;;;;;9.07;8.20;;;;;;;12.42;78.11;98201.66;5105457;27;42669;-78
2021/05/13 02:29:38;;;;;;;9.10;8.27;;;;;;;12.41;77.86;98199.13;5104324;28;42696;-77
2021/05/13 02:32:06;;;;;;;18.93;8.97;;;;;;;12.40;77.99;98192.97;5104481;28;40886;-77
2021/05/13 02:34:44;;;;;;;14.90;8.57;;;;;;;12.40;77.99;98186.81;5106169;27;41551;-77
2021/05/13 02:37:11;;;;;;;8.80;8.00;;;;;;;12.26;77.76;98168.50;5084158;28;43051;-78
2021/05/13 02:39:38;;;;;;;9.13;7.57;;;;;;;12.37;77.93;98184.41;5085585;28;42872;-78
2021/05/13 02:42:05;;;;;;;9.77;7.80;;;;;;;12.33;78.06;98185.63;5110827;28;39836;-77
2021/05/13 02:44:32;;;;;;;8.97;8.07;;;;;;;12.28;77.90;98183.34;5112615;28;42353;-77
2021/05/13 02:47:00;;;;;;;9.17;7.70;;;;;;;12.28;77.96;98177.19;5113606;28;42955;-77
2021/05/13 02:49:27;;;;;;;8.97;8.17;;;;;;;12.24;77.72;98181.88;5110511;28;41628;-79
2021/05/13 02:51:55;;;;;;;9.13;8.23;;;;;;;12.10;78.12;98171.53;5112119;28;40384;-76
2021/05/13 02:54:22;;;;;;;8.63;7.53;;;;;;;12.22;78.12;98182.03;5095343;28;41458;-77
2021/05/13 02:56:50;;;;;;;7.90;7.10;;;;;;;12.20;77.97;98175.16;5106715;28;20283;-77
2021/05/13 02:59:17;;;;;;;9.13;7.97;;;;;;;12.03;77.79;98151.75;5104314;28;42084;-78
2021/05/13 03:01:45;;;;;;;7.97;6.83;;;;;;;12.13;77.98;98173.94;5138804;27;39845;-79
2021/05/13 03:04:13;;;;;;;6.63;5.93;;;;;;;12.10;77.90;98174.19;5103467;28;42207;-77
2021/05/13 03:06:40;;;;;;;5.53;5.03;;;;;;;12.10;77.82;98184.81;5104080;27;42198;-78
2021/05/13 03:09:21;;;;;;;7.17;6.47;;;;;;;12.09;77.55;98176.00;5104394;28;41587;-77
2021/05/13 03:11:49;;;;;;;6.00;5.47;;;;;;;12.06;77.55;98178.06;5104905;28;39135;-78
2021/05/13 03:14:16;;;;;;;8.50;6.30;;;;;;;12.05;77.97;98184.31;5102116;28;40795;-78
2021/05/13 03:16:43;;;;;;;6.93;6.23;;;;;;;12.04;77.94;98182.63;5104949;27;43307;-76
2021/05/13 03:19:15;;;;;;;7.43;6.03;;;;;;;11.99;78.00;98175.03;5086015;28;41580;-77
2021/05/13 03:21:46;;;;;;;7.20;6.30;;;;;;;11.80;78.12;98141.16;5085812;28;39751;-78
2021/05/13 03:24:18;;;;;;;5.90;5.30;;;;;;;11.92;78.15;98168.53;5082912;28;40884;-77
2021/05/13 03:27:10;;;;;;;24.00;6.40;;;;;;;11.78;78.20;98151.03;5087811;28;41695;-78
2021/05/13 03:29:37;;;;;;;10.60;5.00;;;;;;;11.74;78.02;98149.59;5103187;28;42120;-77
2021/05/13 03:32:05;;;;;;;15.33;5.50;;;;;;;11.71;77.96;98163.06;5086813;28;38982;-78
2021/05/13 03:34:32;;;;;;;30.00;6.93;;;;;;;11.71;78.39;98168.38;5087262;28;41393;-77
2021/05/13 03:37:00;;;;;;;6.90;5.33;;;;;;;11.65;78.39;98168.84;5087285;28;41771;-78
2021/05/13 03:39:28;;;;;;;18.30;6.40;;;;;;;11.60;78.55;98160.41;5086302;28;42041;-77
2021/05/13 03:41:55;;;;;;;14.00;5.83;;;;;;;11.58;78.22;98161.50;5090824;28;39876;-78
2021/05/13 03:44:22;;;;;;;40.40;7.03;;;;;;;11.53;77.97;98161.84;5106666;28;42410;-78
2021/05/13 03:46:49;;;;;;;13.03;5.90;;;;;;;11.57;78.41;98165.09;5109160;27;43139;-77
2021/05/13 03:49:17;;;;;;;5.40;4.90;;;;;;;11.48;77.95;98150.75;5105270;28;42960;-77
2021/05/13 03:51:46;;;;;;;8.53;4.33;;;;;;;11.62;78.08;98161.13;5105339;28;40361;-77
2021/05/13 03:54:14;;;;;;;4.47;4.03;;;;;;;11.63;77.92;98162.81;5089989;28;40542;-78
2021/05/13 03:56:41;;;;;;;36.17;6.57;;;;;;;11.63;77.98;98160.16;5089446;28;42968;-77
2021/05/13 03:59:12;;;;;;;8.70;5.57;;;;;;;11.69;77.99;98162.34;5089306;28;41655;-78
2021/05/13 04:01:47;;;;;;;4.70;4.30;;;;;;;11.51;77.89;98135.44;5107344;28;39713;-77
2021/05/13 04:04:14;;;;;;;4.43;4.03;;;;;;;11.73;78.03;98166.47;5107197;28;41268;-77
2021/05/13 04:06:41;;;;;;;14.53;5.97;;;;;;;11.81;77.85;98169.38;5106529;28;42826;-78
2021/05/13 04:09:09;;;;;;;18.03;5.73;;;;;;;11.82;77.74;98168.41;5106100;28;41326;-78
2021/05/13 04:11:38;;;;;;;6.27;5.63;;;;;;;11.80;78.09;98157.06;5089937;28;41294;-78
2021/05/13 04:14:05;;;;;;;7.17;4.83;;;;;;;11.86;77.54;98155.75;5107514;27;42330;-77
2021/05/13 04:16:36;;;;;;;15.00;5.80;;;;;;;11.93;77.68;98162.25;5140085;27;43213;-78
2021/05/13 04:19:03;;;;;;;6.33;5.63;;;;;;;11.93;77.65;98167.56;5089534;28;42124;-78
2021/05/13 04:21:31;;;;;;;10.67;5.73;;;;;;;11.96;77.38;98163.84;5089752;28;39011;-78
2021/05/13 04:23:58;;;;;;;4.93;4.47;;;;;;;11.91;77.68;98153.56;5106971;28;41720;-78
2021/05/13 04:26:25;;;;;;;5.87;5.30;;;;;;;11.87;77.60;98137.03;5106529;28;42741;-78
2021/05/13 04:28:53;;;;;;;5.67;5.20;;;;;;;11.98;77.42;98151.28;5106067;28;42765;-78
2021/05/13 04:31:20;;;;;;;5.23;4.83;;;;;;;12.04;77.65;98164.06;5107396;28;39798;-77
2021/05/13 04:33:47;;;;;;;5.03;4.63;;;;;;;12.05;77.71;98161.28;5106371;28;41702;-77
2021/05/13 04:36:14;;;;;;;4.93;4.53;;;;;;;12.08;77.66;98165.50;5090009;28;41657;-77
2021/05/13 04:38:42;;;;;;;17.93;7.37;;;;;;;12.11;77.50;98165.28;5105996;28;42029;-77
2021/05/13 04:41:09;;;;;;;6.27;5.67;;;;;;;12.14;77.56;98165.00;5108146;27;39739;-78
2021/05/13 04:43:38;;;;;;;6.17;5.67;;;;;;;12.08;77.56;98141.63;5104772;28;42262;-78
2021/05/13 04:46:07;;;;;;;10.23;6.67;;;;;;;12.19;77.60;98157.53;5124318;27;42848;-78
2021/05/13 04:48:52;;;;;;;22.93;10.00;;;;;;;12.20;77.39;98152.09;5105846;28;42663;-77
2021/05/13 04:51:21;;;;;;;11.67;8.37;;;;;;;12.16;77.25;98141.84;5081325;28;39724;-76
2021/05/13 04:53:49;;;;;;;7.27;6.60;;;;;;;12.24;77.29;98150.88;5086524;28;41524;-78
2021/05/13 04:56:18;;;;;;;8.57;7.13;;;;;;;12.15;77.08;98134.84;5101242;28;44078;-78
2021/05/13 04:58:45;;;;;;;7.97;7.23;;;;;;;12.31;77.40;98155.69;5104378;28;41891;-76
2021/05/13 05:01:13;;;;;;;7.73;7.03;;;;;;;12.24;76.98;98136.75;5105248;28;39775;-78
2021/05/13 05:03:40;;;;;;;8.30;7.57;;;;;;;12.31;76.85;98140.63;5106944;27;41639;-79
2021/05/13 05:06:07;;;;;;;8.27;7.47;;;;;;;12.43;77.14;98152.91;5104419;28;42989;-78
2021/05/13 05:08:34;;;;;;;7.93;7.23;;;;;;;12.51;77.04;98147.78;5139678;27;42029;-77
2021/05/13 05:11:01;;;;;;;10.13;7.90;;;;;;;12.57;76.78;98139.34;5088376;28;39794;-78
2021/05/13 05:13:30;;;;;;;9.13;8.33;;;;;;;12.60;76.55;98140.91;5104788;28;41418;-77
2021/05/13 05:15:57;;;;;;;8.93;8.03;;;;;;;12.65;76.81;98140.50;5087007;28;42673;-78
2021/05/13 05:18:26;;;;;;;9.00;8.10;;;;;;;12.68;76.45;98138.44;5106374;28;42665;-77
2021/05/13 05:20:53;;;;;;;8.23;7.53;;;;;;;12.77;76.43;98136.84;5087866;28;38695;-78
2021/05/13 05:23:21;;;;;;;19.23;8.87;;;;;;;12.80;76.54;98136.59;5088356;28;40689;-77
2021/05/13 05:25:49;;;;;;;8.27;7.47;;;;;;;12.83;76.43;98126.56;5123894;27;42056;-78
2021/05/13 05:28:16;;;;;;;8.80;7.47;;;;;;;12.86;76.17;98120.97;5104538;28;42384;-77
2021/05/13 05:30:43;;;;;;;28.17;10.27;;;;;;;12.86;76.49;98126.28;5088196;28;38803;-77
2021/05/13 05:33:11;;;;;;;15.47;10.27;;;;;;;12.91;76.29;98125.91;5088889;28;41528;-78
2021/05/13 05:35:40;;;;;;;9.40;8.53;;;;;;;12.94;76.26;98123.00;5088071;28;42698;-77
2021/05/13 05:38:08;;;;;;;10.10;9.10;;;;;;;12.99;76.48;98118.13;5107368;27;42576;-78
2021/05/13 05:40:38;;;;;;;12.20;11.00;;;;;;;13.05;76.03;98125.59;5105038;28;39832;-77
2021/05/13 05:43:06;;;;;;;12.77;11.57;;;;;;;13.10;76.34;98119.91;5104945;28;42138;-78
2021/05/13 05:45:33;;;;;;;14.27;11.80;;;;;;;13.09;75.97;98110.25;5105312;27;44424;-78
2021/05/13 05:48:01;;;;;;;13.13;11.83;;;;;;;13.19;76.00;98122.66;5106550;28;42939;-77
2021/05/13 05:50:29;;;;;;;12.37;11.23;;;;;;;13.22;75.97;98116.25;5106056;27;40398;-78
2021/05/13 05:52:57;;;;;;;14.10;12.70;;;;;;;13.27;75.87;98116.69;5106614;27;41642;-77
2021/05/13 05:55:25;;;;;;;11.40;10.30;;;;;;;13.36;75.68;98117.69;5105098;28;42480;-78
2021/05/13 05:57:52;;;;;;;11.27;10.17;;;;;;;13.46;75.64;98115.97;5105370;27;42839;-78
2021/05/13 06:00:20;;;;;;;11.87;10.67;;;;;;;13.61;75.48;98110.13;5104544;28;40127;-77
2021/05/13 06:02:47;;;;;;;11.97;10.77;;;;;;;13.76;75.26;98094.66;5102062;27;41953;-77
2021/05/13 06:05:15;;;;;;;12.77;11.53;;;;;;;14.06;74.62;98107.09;5104550;28;43441;-77
2021/05/13 06:07:43;;;;;;;11.57;10.37;;;;;;;14.24;74.23;98107.28;5103916;28;42075;-78
2021/05/13 06:10:13;;;;;;;13.10;11.90;;;;;;;14.36;74.22;98103.50;5104671;28;39633;-78
2021/05/13 06:12:41;;;;;;;11.63;10.43;;;;;;;14.35;74.05;98093.81;5104812;28;42267;-77
2021/05/13 06:15:10;;;;;;;12.57;11.37;;;;;;;14.39;73.46;98108.56;5104682;28;41874;-79
2021/05/13 06:17:38;;;;;;;12.40;11.20;;;;;;;14.35;73.82;98107.16;5084502;28;41192;-78
2021/05/13 06:20:08;;;;;;;12.20;10.93;;;;;;;14.34;73.19;98108.16;5104251;28;40042;-78
2021/05/13 06:22:35;;;;;;;12.40;11.17;;;;;;;14.32;72.92;98105.63;5105309;28;41315;-77
2021/05/13 06:25:02;;;;;;;13.70;12.27;;;;;;;14.27;72.76;98093.69;5104398;28;43947;-79
2021/05/13 06:27:30;;;;;;;11.83;10.73;;;;;;;14.37;73.26;98105.19;5103450;28;42739;-77
2021/05/13 06:29:57;;;;;;;52.43;15.07;;;;;;;14.31;72.97;98092.44;5105796;27;40057;-79
2021/05/13 06:32:26;;;;;;;15.53;12.23;;;;;;;14.36;73.09;98104.34;5104191;28;40702;-78
2021/05/13 06:34:53;;;;;;;14.00;12.60;;;;;;;14.42;72.60;98097.69;5083209;28;43190;-78
2021/05/13 06:37:20;;;;;;;12.20;10.90;;;;;;;14.41;72.43;98096.00;5088654;28;41235;-79
2021/05/13 06:39:47;;;;;;;33.37;13.77;;;;;;;14.45;72.37;98101.91;5105849;27;41796;-77
2021/05/13 06:42:15;;;;;;;12.40;11.20;;;;;;;14.44;72.61;98103.72;5105052;27;41882;-77
2021/05/13 06:44:44;;;;;;;24.60;12.27;;;;;;;14.48;72.65;98097.09;5087502;28;42515;-78
2021/05/13 06:47:12;;;;;;;12.63;11.43;;;;;;;14.60;72.58;98106.66;5104640;28;42315;-78
2021/05/13 06:49:39;;;;;;;12.13;11.03;;;;;;;14.68;72.01;98104.16;5082792;28;40136;-78
2021/05/13 06:52:07;;;;;;;13.60;11.30;;;;;;;14.73;72.06;98109.03;5104841;27;41327;-78
2021/05/13 06:54:34;;;;;;;21.63;13.67;;;;;;;14.77;71.80;98085.63;5103898;28;42265;-77
2021/05/13 06:57:02;;;;;;;12.90;11.60;;;;;;;14.86;71.46;98098.09;5102902;28;41992;-78
2021/05/13 06:59:30;;;;;;;11.63;10.53;;;;;;;14.89;71.69;98090.66;5103483;28;39887;-79
2021/05/13 07:01:58;;;;;;;13.03;11.73;;;;;;;15.07;71.56;98096.13;5098273;28;41362;-75
2021/05/13 07:04:27;;;;;;;10.57;9.57;;;;;;;15.34;70.89;98104.19;5104168;27;43330;-76
2021/05/13 07:06:54;;;;;;;11.53;10.50;;;;;;;15.63;70.05;98109.50;5104435;28;42588;-77
2021/05/13 07:09:21;;;;;;;11.00;9.90;;;;;;;15.88;69.51;98108.00;5103436;28;40684;-76
2021/05/13 07:11:48;;;;;;;11.53;10.37;;;;;;;16.12;69.39;98100.28;5086839;28;40508;-77
2021/05/13 07:14:16;;;;;;;14.07;12.67;;;;;;;16.33;68.56;98096.50;5102685;28;43852;-75
2021/05/13 07:16:56;;;;;;;12.67;11.47;;;;;;;16.53;68.17;98096.25;5084575;28;42364;-76
2021/05/13 07:19:24;;;;;;;16.53;14.83;;;;;;;16.70;67.82;98102.59;5085071;28;40651;-77
2021/05/13 07:21:52;;;;;;;14.97;13.57;;;;;;;16.78;67.59;98093.81;5084796;28;41683;-77
2021/05/13 07:24:19;;;;;;;14.97;13.47;;;;;;;16.93;67.30;98103.00;5095104;28;42198;-76
2021/05/13 07:26:48;;;;;;;13.67;12.37;;;;;;;17.11;65.64;98102.97;5102487;28;42918;-76
2021/05/13 07:29:18;;;;;;;12.03;10.53;;;;;;;17.36;66.08;98098.63;5104471;27;40653;-75
2021/05/13 07:31:45;;;;;;;11.47;10.47;;;;;;;17.67;65.39;98099.03;5103659;27;41602;-77
2021/05/13 07:34:13;;;;;;;10.60;9.53;;;;;;;17.73;64.78;98050.19;5098650;28;41486;-76
2021/05/13 07:36:41;;;;;;;11.20;10.10;;;;;;;18.29;63.23;98103.16;5103500;28;42813;-76
2021/05/13 07:39:08;;;;;;;11.97;10.97;;;;;;;18.87;61.95;98105.81;5100945;28;39754;-76
2021/05/13 07:41:35;;;;;;;11.73;10.70;;;;;;;19.33;61.10;98104.31;5102349;28;41292;-78
2021/05/13 07:44:02;;;;;;;10.27;9.37;;;;;;;19.72;60.26;98109.81;5104297;27;41720;-78
2021/05/13 07:46:37;;;;;;;10.17;9.17;;;;;;;20.03;60.13;98106.34;5104152;28;41615;-77
2021/05/13 07:49:05;;;;;;;10.23;9.23;;;;;;;20.26;59.20;98093.84;5104167;27;40086;-77
2021/05/13 07:51:33;;;;;;;9.67;8.77;;;;;;;20.55;57.28;98086.97;5103152;28;41535;-75
2021/05/13 07:54:01;;;;;;;10.40;9.10;;;;;;;21.14;55.91;98115.81;5102956;28;42617;-76
2021/05/13 07:56:28;;;;;;;9.27;8.37;;;;;;;21.47;54.66;98107.50;5103657;28;42704;-77
2021/05/13 07:58:55;;;;;;;9.07;8.20;;;;;;;21.58;55.44;98108.91;5102800;28;39211;-77
2021/05/13 08:01:22;;;;;;;8.83;7.87;;;;;;;21.66;55.79;98085.38;5086500;28;41916;-76
2021/05/13 08:03:50;;;;;;;8.27;7.57;;;;;;;21.90;55.21;98110.41;5102054;28;42633;-77
2021/05/13 08:06:17;;;;;;;8.10;7.30;;;;;;;22.16;54.59;98108.94;5103999;28;42046;-77
2021/05/13 08:08:44;;;;;;;8.97;8.10;;;;;;;22.43;51.25;98115.53;5105373;27;39709;-76
2021/05/13 08:11:12;;;;;;;8.53;6.80;;;;;;;22.63;50.60;98117.59;5084933;28;40938;-77
2021/05/13 08:13:41;;;;;;;6.33;5.73;;;;;;;22.82;50.95;98104.38;5102879;28;43698;-76
2021/05/13 08:16:08;;;;;;;10.40;6.73;;;;;;;23.16;50.54;98110.94;5101684;28;40882;-78
2021/05/13 08:18:35;;;;;;;5.43;5.00;;;;;;;23.44;49.24;98070.44;5098136;28;39992;-78
2021/05/13 08:21:02;;;;;;;7.53;5.40;;;;;;;23.92;48.98;98104.69;5102295;28;41018;-76
2021/05/13 08:23:30;;;;;;;7.60;5.97;;;;;;;23.94;48.48;98110.75;5103976;28;42272;-79
2021/05/13 08:25:57;;;;;;;6.53;5.90;;;;;;;23.89;48.59;98115.91;5104271;27;42202;-80
2021/05/13 08:28:33;;;;;;;4.90;4.40;;;;;;;23.72;48.47;98101.03;5107804;27;39931;-77
2021/05/13 08:31:00;;;;;;;7.23;4.27;;;;;;;23.70;47.53;98116.63;5087866;28;42466;-79
2021/05/13 08:33:27;;;;;;;6.00;5.40;;;;;;;23.48;46.98;98114.97;5086943;28;42510;-78
2021/05/13 08:35:54;;;;;;;7.40;5.23;;;;;;;23.24;45.92;98125.13;5107317;27;42135;-80
2021/05/13 08:38:22;;;;;;;5.10;4.40;;;;;;;23.05;47.07;98109.59;5106849;28;40760;-77
2021/05/13 08:40:49;;;;;;;5.07;4.57;;;;;;;22.87;47.06;98111.91;5123014;27;40576;-77
2021/05/13 08:43:23;;;;;;;6.23;3.97;;;;;;;22.69;47.96;98097.97;5088955;28;41914;-78
2021/05/13 08:45:52;;;;;;;5.53;5.03;;;;;;;22.68;48.89;98098.97;5106236;28;42731;-78
2021/05/13 08:48:19;;;;;;;4.87;4.13;;;;;;;22.63;48.65;98099.53;5108869;27;39472;-76
2021/05/13 08:50:47;;;;;;;5.83;5.07;;;;;;;22.36;49.56;98059.81;5088728;28;41632;-77
2021/05/13 08:53:14;;;;;;;5.97;4.90;;;;;;;22.50;49.61;98100.22;5085061;28;42676;-79
2021/05/13 08:55:41;;;;;;;5.80;4.07;;;;;;;22.47;50.39;98095.25;5089577;28;42649;-78
2021/05/13 08:58:08;;;;;;;7.07;4.57;;;;;;;22.43;50.65;98085.00;5105339;28;39862;-80
2021/05/13 09:00:35;;;;;;;5.20;4.43;;;;;;;22.10;50.54;98034.19;5105776;28;41059;-80
2021/05/13 09:03:04;;;;;;;5.57;4.70;;;;;;;22.34;50.21;98080.75;5105679;27;42584;-77
2021/05/13 09:05:32;;;;;;;5.57;4.13;;;;;;;22.33;49.75;98088.00;5107204;27;42958;-79
2021/05/13 09:08:04;;;;;;;4.30;3.90;;;;;;;22.35;49.99;98090.53;5089058;28;39895;-77
2021/05/13 09:10:32;;;;;;;6.53;5.23;;;;;;;22.39;50.00;98084.53;5140352;27;41214;-79
2021/05/13 09:12:59;;;;;;;4.67;4.07;;;;;;;22.45;50.62;98075.69;5107807;27;42542;-78
2021/05/13 09:15:28;;;;;;;4.60;3.43;;;;;;;22.39;49.64;98037.84;5107512;27;42853;-80
2021/05/13 09:18:04;;;;;;;4.07;3.63;;;;;;;22.89;49.16;98082.81;5106421;28;41031;-78
2021/05/13 09:20:33;;;;;;;3.47;3.00;;;;;;;23.14;48.05;98089.50;5088544;28;41271;-79
2021/05/13 09:23:11;;;;;;;7.60;4.10;;;;;;;23.45;47.57;98085.63;5104620;28;42287;-77
2021/05/13 09:25:40;;;;;;;4.10;3.53;;;;;;;23.83;47.02;98081.56;5104599;28;42367;-80
2021/05/13 09:28:10;;;;;;;6.37;3.90;;;;;;;24.27;46.36;98083.06;5088566;28;39845;-79
2021/05/13 09:30:38;;;;;;;5.70;3.93;;;;;;;24.76;44.39;98087.38;5087275;28;41967;-77
2021/05/13 09:33:09;;;;;;;5.27;3.30;;;;;;;25.17;42.50;98096.25;5104680;28;42368;-78
2021/05/13 09:35:37;;;;;;;4.07;3.63;;;;;;;25.76;41.38;98108.97;5105149;28;42780;-78
2021/05/13 09:38:07;;;;;;;5.50;3.17;;;;;;;26.31;40.30;98082.38;5100785;27;41096;-78
2021/05/13 09:40:36;;;;;;;10.53;7.57;;;;;;;26.98;39.46;98105.44;5104675;28;42232;-79
2021/05/13 09:43:12;;;;;;;7.67;5.13;;;;;;;27.06;39.51;98102.50;5105459;28;42477;-77
2021/05/13 09:45:44;;;;;;;5.07;3.40;;;;;;;27.96;38.73;98059.44;5102451;28;42327;-79
2021/05/13 09:48:32;;;;;;;4.67;3.20;;;;;;;29.54;35.17;98111.88;5104261;28;39840;-80
2021/05/13 09:51:16;;;;;;;4.43;3.53;;;;;;;29.99;32.36;98125.81;5104535;28;41700;-80
2021/05/13 09:53:45;;;;;;;3.87;2.90;;;;;;;30.09;32.76;98119.75;5104757;27;44231;-78
2021/05/13 09:56:25;;;;;;;3.53;2.70;;;;;;;30.09;31.22;98123.31;5104428;27;42898;-79
2021/05/13 09:58:53;;;;;;;3.77;3.07;;;;;;;30.77;32.90;98121.78;5104404;28;40651;-81
2021/05/13 10:01:24;;;;;;;4.87;2.40;;;;;;;31.25;31.13;98116.72;5088505;28;41892;-79
2021/05/13 10:03:55;;;;;;;5.07;2.77;;;;;;;31.97;30.62;98126.94;5121884;27;41306;-80
2021/05/13 10:06:23;;;;;;;3.60;2.47;;;;;;;32.51;30.06;98118.97;5085260;28;42878;-79
2021/05/13 10:08:50;;;;;;;3.43;2.27;;;;;;;32.87;29.64;98093.66;5086808;28;41180;-79
2021/05/13 10:11:20;;;;;;;5.60;2.77;;;;;;;33.63;28.76;98108.09;5103032;28;40778;-78
2021/05/13 10:13:48;;;;;;;3.30;2.30;;;;;;;34.23;28.38;98116.00;5085866;28;42830;-78
2021/05/13 10:16:16;;;;;;;6.63;2.93;;;;;;;34.74;25.47;98118.19;5100578;28;42953;-78
2021/05/13 10:18:47;;;;;;;8.47;6.90;;;;;;;35.10;25.72;98119.16;5105951;27;39742;-80
2021/05/13 10:21:20;;;;;;;4.97;3.87;;;;;;;35.12;26.37;98104.00;5103773;28;40648;-77
2021/05/13 10:23:48;;;;;;;4.53;2.73;;;;;;;34.33;26.40;98101.50;5102535;28;42498;-77
2021/05/13 10:26:44;;;;;;;3.13;2.30;;;;;;;33.98;26.78;98088.38;5104713;28;41609;-77
2021/05/13 10:29:34;;;;;;;3.77;2.33;;;;;;;33.85;26.83;98077.84;5106369;27;39280;-78
2021/05/13 10:32:11;;;;;;;3.60;3.17;;;;;;;33.09;25.01;98102.66;5103603;28;42533;-80
2021/05/13 10:34:52;;;;;;;5.33;2.37;;;;;;;31.96;27.31;98076.00;5104872;28;42689;-79
2021/05/13 10:37:30;;;;;;;4.80;2.73;;;;;;;31.90;28.02;98072.34;5086902;28;41694;-78
2021/05/13 10:40:25;;;;;;;2.73;1.60;;;;;;;31.23;28.89;98055.94;5086584;28;41077;-79
2021/05/13 10:43:01;;;;;;;3.97;1.70;;;;;;;30.67;29.79;98051.31;5104714;28;42366;-78
2021/05/13 10:45:37;;;;;;;4.53;1.50;;;;;;;30.95;30.92;98032.16;5102844;28;42689;-79
2021/05/13 10:48:12;;;;;;;4.17;1.90;;;;;;;31.67;28.62;98048.72;5104257;27;42610;-77
2021/05/13 10:50:45;;;;;;;4.70;1.87;;;;;;;32.53;26.25;98059.22;5103406;27;40505;-77
2021/05/13 10:53:46;;;;;;;2.40;1.70;;;;;;;33.41;25.29;98071.69;5103776;27;41447;-78
2021/05/13 10:56:33;;;;;;;3.80;1.30;;;;;;;32.75;27.29;98051.84;5023277;28;42758;-77
2021/05/13 10:59:13;;;;;;;2.77;1.40;;;;;;;31.91;28.11;98056.72;5007073;28;42353;-79
2021/05/13 11:01:46;;;;;;;3.50;1.83;;;;;;;31.22;28.28;98046.06;5077656;28;39915;-79
2021/05/13 11:04:38;;;;;;;3.03;1.70;;;;;;;30.80;27.83;98045.56;5103745;28;41384;-78
2021/05/13 11:07:07;;;;;;;2.87;1.70;;;;;;;30.09;28.50;98044.09;5102389;28;44615;-77
2021/05/13 11:09:50;;;;;;;2.97;1.40;;;;;;;29.35;29.76;98018.34;5085594;28;42372;-78
2021/05/13 11:12:19;;;;;;;3.47;1.80;;;;;;;28.78;29.91;97998.94;5104682;27;40829;-77
2021/05/13 11:15:17;;;;;;;4.97;1.70;;;;;;;28.34;32.26;98010.22;5086192;28;42718;-78
2021/05/13 11:18:13;;;;;;;5.50;1.60;;;;;;;27.47;28.67;98015.75;5100272;28;43054;-78
2021/05/13 11:20:50;;;;;;;2.13;1.23;;;;;;;26.73;31.80;97992.09;5091342;28;42049;-78
2021/05/13 11:23:23;;;;;;;2.27;1.30;;;;;;;26.27;33.11;97989.63;5086022;28;40155;-78
2021/05/13 11:25:54;;;;;;;1.97;1.10;;;;;;;25.91;33.90;97992.94;5097760;28;42902;-79
2021/05/13 11:28:31;;;;;;;3.20;1.13;;;;;;;25.57;35.74;97982.38;5103898;28;43121;-79
2021/05/13 11:31:14;;;;;;;1.70;1.20;;;;;;;25.13;34.92;97992.00;5082093;28;41995;-80
2021/05/13 11:33:43;;;;;;;3.33;1.43;;;;;;;24.67;34.68;97986.56;5072467;28;39165;-77
2021/05/13 11:36:13;;;;;;;3.43;1.27;;;;;;;24.09;34.99;98004.28;5102712;28;43774;-76
2021/05/13 11:38:41;;;;;;;2.83;0.97;;;;;;;23.53;36.23;97972.81;5103425;28;43226;-79
2021/05/13 11:41:10;;;;;;;1.70;1.30;;;;;;;23.35;36.30;97995.97;5085394;28;43426;-79
2021/05/13 11:43:40;;;;;;;1.67;1.03;;;;;;;23.16;37.92;97987.50;5087463;28;40023;-78